Aviation Digital Data Service (ADDS)

Output produced by METARs form (0936 UTC 25 November 2017)
found at http://www.aviationweather.gov/adds/metars/
 
KJFK 250846Z 2509/2612 21010KT P6SM SCT120 BKN250 
     FM252300 25010KT P6SM VCSH SCT040 BKN100 OVC200 
     FM260200 29012G18KT P6SM VCSH OVC040 
     FM260700 31015G25KT P6SM SCT050